Archer, Wyoming
Current Conditions -  °F | °C
As of 6:53 AM on Tuesday 27 Jan 2015 (Local Time) from KCYS Reporting Station
Clear Clear  
Wind Chill: 39°   Ceiling: Unl
Heat Index: 44°   Visibility: 10mi
Dew Point: 18°   Wind: 9mph
Humidity: 35%   Direction: 280°W
Pressure: 30.16"   Gusts: NA
Location:  41.4091°N, 104.861°W
Report Text: KCYS 271353Z 28008KT 10SM CLR 07/M08 A3016 RMK AO2 SLP187 T00671078
Loading
Personal Weather Stations






























Interactive Weather Map New forecast layout! Learn more

10-Day Weather Forecast

Advertisements
Track Severe Weather on mobile